^^
Saratoga-Weather Station Historical Data
Daily Summary for April 12, 2020 Units:  Metric    English   Both
Daily Weekly Monthly Yearly Custom
  High: Low: Average:
Temperature: 11.4 °C 6.4 °C 9.1 °C
Dew Point: 8.8 °C 5.1 °C 7.3 °C
Humidity: 93% 80% 89%
Wind Speed: 13km/h 0km/h 3.1km/h
Wind Gust: 17.7km/h - -
Wind- - West
Pressure: 1021.7 hPa 1016.9 hPa -
Precipitation: 0.2 mm    
Historical Graphs
 
 
Tabular Data for April 12, 2020
Time Temperature Dew Point Pressure Wind Wind Speed Wind Gust Humidity Rainfall Rate (Hourly) solar
00:01 9.2 °C 7 °C 1021.0 hPa West 3.2 km/h 9.7 km/h 86% 0.0 mm 0 W/m2
00:06 9.2 °C 7 °C 1021.0 hPa WSW 4.7 km/h 8 km/h 86% 0.0 mm 0 W/m2
00:11 9.2 °C 7 °C 1021.0 hPa West 4.7 km/h 6.4 km/h 86% 0.0 mm 0 W/m2
00:16 9.1 °C 6.9 °C 1021.0 hPa West 3.2 km/h 8 km/h 86% 0.0 mm 0 W/m2
00:21 9.1 °C 6.9 °C 1021.0 hPa West 4.7 km/h 8 km/h 86% 0.0 mm 0 W/m2
00:26 9 °C 6.8 °C 1021.0 hPa West 4.7 km/h 6.4 km/h 86% 0.0 mm 0 W/m2
00:31 8.9 °C 6.7 °C 1021.0 hPa West 4.7 km/h 6.4 km/h 86% 0.0 mm 0 W/m2
00:36 8.8 °C 6.8 °C 1021.3 hPa WSW 6.4 km/h 6.4 km/h 87% 0.0 mm 0 W/m2
00:41 8.7 °C 6.7 °C 1021.3 hPa West 4.7 km/h 8 km/h 87% 0.0 mm 0 W/m2
00:46 8.7 °C 6.7 °C 1021.3 hPa West 3.2 km/h 6.4 km/h 87% 0.0 mm 0 W/m2
00:51 8.7 °C 6.8 °C 1021.3 hPa West 4.7 km/h 8 km/h 88% 0.0 mm 0 W/m2
00:56 8.6 °C 6.7 °C 1021.3 hPa West 9.7 km/h 11.3 km/h 88% 0.0 mm 0 W/m2
01:01 8.6 °C 6.7 °C 1021.3 hPa West 3.2 km/h 9.7 km/h 88% 0.0 mm 0 W/m2
01:06 8.4 °C 6.5 °C 1021.3 hPa West 9.7 km/h 14.5 km/h 88% 0.0 mm 0 W/m2
01:11 8.4 °C 6.5 °C 1021.3 hPa WSW 4.7 km/h 9.7 km/h 88% 0.0 mm 0 W/m2
01:16 8.3 °C 6.4 °C 1021.3 hPa West 3.2 km/h 11.3 km/h 88% 0.0 mm 0 W/m2
01:21 8.3 °C 6.4 °C 1021.3 hPa WSW 3.2 km/h 6.4 km/h 88% 0.0 mm 0 W/m2
01:26 8.2 °C 6.3 °C 1021.3 hPa West 6.4 km/h 9.7 km/h 88% 0.0 mm 0 W/m2
01:32 8.1 °C 6.2 °C 1021.3 hPa West 1.4 km/h 6.4 km/h 88% 0.0 mm 0 W/m2
01:37 8 °C 6.3 °C 1021.3 hPa West 3.2 km/h 4.8 km/h 89% 0.0 mm 0 W/m2
01:42 7.9 °C 6.2 °C 1021.3 hPa West 3.2 km/h 6.4 km/h 89% 0.0 mm 0 W/m2
01:47 7.8 °C 6.1 °C 1021.3 hPa West 3.2 km/h 3.2 km/h 89% 0.0 mm 0 W/m2
01:52 7.7 °C 6 °C 1021.3 hPa West 3.2 km/h 4.8 km/h 89% 0.0 mm 0 W/m2
01:57 7.5 °C 6 °C 1021.3 hPa WSW 3.2 km/h 4.8 km/h 90% 0.0 mm 0 W/m2
02:02 7.4 °C 5.9 °C 1021.3 hPa Calm   3.2 km/h 90% 0.0 mm 0 W/m2
02:07 7.3 °C 5.8 °C 1021.3 hPa West 1.4 km/h 3.2 km/h 90% 0.0 mm 0 W/m2
02:12 7.3 °C 5.8 °C 1021.3 hPa West 1.4 km/h 4.8 km/h 90% 0.0 mm 0 W/m2
02:17 7.3 °C 5.9 °C 1021.3 hPa West 3.2 km/h 6.4 km/h 91% 0.0 mm 0 W/m2
02:22 7.3 °C 5.9 °C 1021.3 hPa West 1.4 km/h 4.8 km/h 91% 0.0 mm 0 W/m2
02:27 7.3 °C 5.9 °C 1021.3 hPa West 1.4 km/h 4.8 km/h 91% 0.0 mm 0 W/m2
02:32 7.3 °C 5.8 °C 1021.3 hPa West 1.4 km/h 4.8 km/h 90% 0.0 mm 0 W/m2
02:37 7.3 °C 5.8 °C 1021.3 hPa West 1.4 km/h 3.2 km/h 90% 0.0 mm 0 W/m2
02:42 7.2 °C 5.7 °C 1021.3 hPa WNW 1.4 km/h 6.4 km/h 90% 0.0 mm 0 W/m2
02:47 7 °C 5.5 °C 1021.3 hPa West 1.4 km/h 3.2 km/h 90% 0.0 mm 0 W/m2
02:52 6.9 °C 5.4 °C 1021.3 hPa West 1.4 km/h 3.2 km/h 90% 0.0 mm 0 W/m2
02:57 6.7 °C 5.3 °C 1021.3 hPa West 1.4 km/h 3.2 km/h 91% 0.0 mm 0 W/m2
03:02 6.6 °C 5.2 °C 1021.3 hPa West 1.4 km/h 4.8 km/h 91% 0.0 mm 0 W/m2
03:07 6.5 °C 5.1 °C 1021.3 hPa West 3.2 km/h 3.2 km/h 91% 0.0 mm 0 W/m2
03:12 6.4 °C 5.2 °C 1021.3 hPa West 3.2 km/h 4.8 km/h 92% 0.0 mm 0 W/m2
03:17 6.5 °C 5.3 °C 1021.3 hPa West 4.7 km/h 9.7 km/h 92% 0.0 mm 0 W/m2
03:22 6.7 °C 5.5 °C 1021.3 hPa West 4.7 km/h 6.4 km/h 92% 0.0 mm 0 W/m2
03:27 6.8 °C 5.6 °C 1021.3 hPa West 4.7 km/h 6.4 km/h 92% 0.0 mm 0 W/m2
03:32 6.9 °C 5.7 °C 1021.3 hPa West 3.2 km/h 11.3 km/h 92% 0.0 mm 0 W/m2
03:37 7 °C 5.6 °C 1021.3 hPa West 4.7 km/h 11.3 km/h 91% 0.0 mm 0 W/m2
03:42 7 °C 5.6 °C 1021.3 hPa West 4.7 km/h 6.4 km/h 91% 0.0 mm 0 W/m2
03:47 7 °C 5.6 °C 1021.3 hPa WNW 4.7 km/h 11.3 km/h 91% 0.0 mm 0 W/m2
03:52 7.1 °C 5.7 °C 1021.3 hPa West 4.7 km/h 9.7 km/h 91% 0.0 mm 0 W/m2
03:57 7.1 °C 5.6 °C 1021.3 hPa West 6.4 km/h 9.7 km/h 90% 0.0 mm 0 W/m2
04:02 7.2 °C 5.7 °C 1021.0 hPa WNW 3.2 km/h 6.4 km/h 90% 0.0 mm 0 W/m2
04:07 7.2 °C 5.7 °C 1021.0 hPa West 4.7 km/h 6.4 km/h 90% 0.0 mm 0 W/m2
04:12 7.3 °C 5.8 °C 1021.0 hPa West 4.7 km/h 6.4 km/h 90% 0.0 mm 0 W/m2
04:17 7.4 °C 5.9 °C 1021.0 hPa West 3.2 km/h 4.8 km/h 90% 0.0 mm 0 W/m2
04:22 7.7 °C 6.2 °C 1021.0 hPa WSW 6.4 km/h 9.7 km/h 90% 0.0 mm 0 W/m2
04:27 7.8 °C 6.3 °C 1021.0 hPa WNW 1.4 km/h 4.8 km/h 90% 0.0 mm 0 W/m2
04:32 7.8 °C 6.3 °C 1021.0 hPa NW 1.4 km/h 3.2 km/h 90% 0.0 mm 0 W/m2
04:37 7.9 °C 6.2 °C 1021.0 hPa Calm   3.2 km/h 89% 0.0 mm 0 W/m2
04:42 7.9 °C 6.2 °C 1021.0 hPa NW 1.4 km/h 1.6 km/h 89% 0.0 mm 0 W/m2
04:47 7.8 °C 6.1 °C 1021.0 hPa NW 1.4 km/h 3.2 km/h 89% 0.0 mm 0 W/m2
04:52 7.8 °C 6.1 °C 1021.0 hPa Calm     89% 0.0 mm 0 W/m2
04:57 7.8 °C 6.1 °C 1021.0 hPa NW 1.4 km/h 4.8 km/h 89% 0.0 mm 0 W/m2
05:02 7.8 °C 6.3 °C 1021.0 hPa Calm   1.6 km/h 90% 0.0 mm 0 W/m2
05:07 7.8 °C 6.3 °C 1021.0 hPa Calm   4.8 km/h 90% 0.0 mm 0 W/m2
05:12 7.8 °C 6.3 °C 1021.0 hPa West 1.4 km/h 4.8 km/h 90% 0.0 mm 0 W/m2
05:17 7.8 °C 6.3 °C 1021.0 hPa West 3.2 km/h 6.4 km/h 90% 0.0 mm 0 W/m2
05:22 7.8 °C 6.3 °C 1021.0 hPa West 1.4 km/h 4.8 km/h 90% 0.0 mm 0 W/m2
05:27 7.9 °C 6.4 °C 1021.0 hPa NW 3.2 km/h 6.4 km/h 90% 0.0 mm 0 W/m2
05:32 7.9 °C 6.4 °C 1021.0 hPa WSW 3.2 km/h 4.8 km/h 90% 0.0 mm 0 W/m2
05:37 8 °C 6.5 °C 1021.0 hPa WNW 6.4 km/h 8 km/h 90% 0.0 mm 0 W/m2
05:42 8.1 °C 6.6 °C 1021.0 hPa West 1.4 km/h 3.2 km/h 90% 0.0 mm 0 W/m2
05:47 8.1 °C 6.6 °C 1021.0 hPa Calm   3.2 km/h 90% 0.0 mm 0 W/m2
05:52 8.1 °C 6.6 °C 1021.0 hPa NW 1.4 km/h 3.2 km/h 90% 0.0 mm 0 W/m2
05:57 8 °C 6.5 °C 1021.0 hPa WNW 1.4 km/h 6.4 km/h 90% 0.0 mm 0 W/m2
06:02 8 °C 6.5 °C 1021.0 hPa West 1.4 km/h 6.4 km/h 90% 0.0 mm 0 W/m2
06:07 8 °C 6.5 °C 1021.0 hPa Calm   1.6 km/h 90% 0.0 mm 0 W/m2
06:12 8 °C 6.5 °C 1021.0 hPa Calm   1.6 km/h 90% 0.0 mm 0 W/m2
06:17 8 °C 6.5 °C 1021.0 hPa WNW 1.4 km/h 3.2 km/h 90% 0.0 mm 0 W/m2
06:22 7.9 °C 6.4 °C 1021.0 hPa WNW 1.4 km/h 3.2 km/h 90% 0.0 mm 0 W/m2
06:27 7.9 °C 6.4 °C 1021.0 hPa WNW 1.4 km/h 3.2 km/h 90% 0.0 mm 0 W/m2
06:32 7.9 °C 6.5 °C 1021.0 hPa WNW 3.2 km/h 4.8 km/h 91% 0.0 mm 0 W/m2
06:37 7.9 °C 6.5 °C 1021.0 hPa West 3.2 km/h 4.8 km/h 91% 0.0 mm 0 W/m2
06:42 7.8 °C 6.4 °C 1021.0 hPa West 1.4 km/h 4.8 km/h 91% 0.0 mm 0 W/m2
06:47 7.8 °C 6.4 °C 1021.0 hPa West 3.2 km/h 4.8 km/h 91% 0.0 mm 0 W/m2
06:52 7.8 °C 6.4 °C 1021.0 hPa WSW 1.4 km/h 3.2 km/h 91% 0.0 mm 0 W/m2
06:57 7.8 °C 6.4 °C 1021.0 hPa West 3.2 km/h 6.4 km/h 91% 0.0 mm 0 W/m2
07:02 7.8 °C 6.4 °C 1021.0 hPa WSW 1.4 km/h 3.2 km/h 91% 0.0 mm 0 W/m2
07:07 7.8 °C 6.4 °C 1021.0 hPa WSW 4.7 km/h 4.8 km/h 91% 0.0 mm 0 W/m2
07:12 7.8 °C 6.4 °C 1021.0 hPa WSW 1.4 km/h 3.2 km/h 91% 0.0 mm 0 W/m2
07:17 7.8 °C 6.4 °C 1021.0 hPa WNW 3.2 km/h 4.8 km/h 91% 0.0 mm 0 W/m2
07:22 7.8 °C 6.4 °C 1021.0 hPa Calm   1.6 km/h 91% 0.0 mm 0 W/m2
07:27 7.8 °C 6.4 °C 1021.0 hPa West 1.4 km/h 3.2 km/h 91% 0.0 mm 0 W/m2
07:32 7.9 °C 6.7 °C 1021.0 hPa Calm   3.2 km/h 92% 0.0 mm 0 W/m2
07:37 7.9 °C 6.5 °C 1021.0 hPa Calm   1.6 km/h 91% 0.0 mm 0 W/m2
07:42 7.9 °C 6.5 °C 1021.0 hPa WNW 3.2 km/h 3.2 km/h 91% 0.0 mm 0 W/m2
07:47 7.9 °C 6.5 °C 1021.0 hPa WNW 1.4 km/h 3.2 km/h 91% 0.0 mm 0 W/m2
07:52 7.9 °C 6.5 °C 1021.0 hPa Calm   3.2 km/h 91% 0.0 mm 0 W/m2
07:57 7.9 °C 6.5 °C 1021.0 hPa ENE 1.4 km/h 3.2 km/h 91% 0.0 mm 0 W/m2
08:02 7.9 °C 6.5 °C 1021.3 hPa Calm   4.8 km/h 91% 0.0 mm 5 W/m2
08:07 7.9 °C 6.5 °C 1021.3 hPa NNW 3.2 km/h 3.2 km/h 91% 0.0 mm 7 W/m2
08:12 7.9 °C 6.5 °C 1021.3 hPa NW 1.4 km/h 4.8 km/h 91% 0.0 mm 11 W/m2
08:17 7.9 °C 6.5 °C 1021.3 hPa Calm     91% 0.0 mm 12 W/m2
08:22 8 °C 6.8 °C 1021.3 hPa Calm   4.8 km/h 92% 0.0 mm 16 W/m2
08:27 8 °C 6.8 °C 1021.3 hPa Calm     92% 0.0 mm 19 W/m2
08:32 8 °C 6.8 °C 1021.3 hPa NW 3.2 km/h 3.2 km/h 92% 0.0 mm 23 W/m2
08:37 8 °C 6.6 °C 1021.3 hPa Calm   3.2 km/h 91% 0.0 mm 26 W/m2
08:42 8 °C 6.6 °C 1021.3 hPa West 6.4 km/h 6.4 km/h 91% 0.0 mm 26 W/m2
08:47 7.9 °C 6.5 °C 1021.3 hPa SW 3.2 km/h 6.4 km/h 91% 0.0 mm 30 W/m2
08:52 7.9 °C 6.5 °C 1021.3 hPa WNW 3.2 km/h 3.2 km/h 91% 0.0 mm 37 W/m2
08:57 7.8 °C 6.6 °C 1021.3 hPa West 1.4 km/h 6.4 km/h 92% 0.0 mm 32 W/m2
09:02 7.8 °C 6.6 °C 1021.3 hPa Calm   4.8 km/h 92% 0.0 mm 33 W/m2
09:07 7.9 °C 6.7 °C 1021.3 hPa Calm   6.4 km/h 92% 0.0 mm 35 W/m2
09:12 7.9 °C 6.7 °C 1021.3 hPa WNW 1.4 km/h 8 km/h 92% 0.0 mm 39 W/m2
09:17 7.9 °C 6.7 °C 1021.3 hPa WSW 3.2 km/h 4.8 km/h 92% 0.0 mm 39 W/m2
09:22 8.1 °C 6.9 °C 1021.7 hPa West 1.4 km/h 4.8 km/h 92% 0.0 mm 47 W/m2
09:27 8.1 °C 6.9 °C 1021.7 hPa NW 3.2 km/h 3.2 km/h 92% 0.0 mm 54 W/m2
09:32 8.2 °C 7 °C 1021.7 hPa Calm   6.4 km/h 92% 0.0 mm 49 W/m2
09:37 8.3 °C 7.1 °C 1021.7 hPa WSW 1.4 km/h 6.4 km/h 92% 0.0 mm 69 W/m2
09:42 8.3 °C 7.1 °C 1021.3 hPa West 4.7 km/h 4.8 km/h 92% 0.0 mm 81 W/m2
09:47 8.4 °C 7.2 °C 1021.3 hPa WSW 6.4 km/h 6.4 km/h 92% 0.0 mm 104 W/m2
09:52 8.5 °C 7.1 °C 1021.3 hPa WNW 3.2 km/h 6.4 km/h 91% 0.0 mm 113 W/m2
09:57 8.6 °C 7.2 °C 1021.3 hPa WNW 6.4 km/h 6.4 km/h 91% 0.0 mm 120 W/m2
10:02 8.7 °C 7.3 °C 1021.3 hPa WNW 1.4 km/h 4.8 km/h 91% 0.0 mm 127 W/m2
10:07 8.8 °C 7.4 °C 1021.3 hPa WNW 4.7 km/h 9.7 km/h 91% 0.0 mm 146 W/m2
10:12 8.9 °C 7.3 °C 1021.3 hPa WNW 3.2 km/h 6.4 km/h 90% 0.0 mm 158 W/m2
10:17 9.1 °C 7.5 °C 1021.3 hPa NW 4.7 km/h 9.7 km/h 90% 0.0 mm 151 W/m2
10:22 9.1 °C 7.5 °C 1021.7 hPa NW 4.7 km/h 9.7 km/h 90% 0.0 mm 174 W/m2
10:27 9.2 °C 7.5 °C 1021.7 hPa West 3.2 km/h 6.4 km/h 89% 0.0 mm 204 W/m2
10:32 9.3 °C 7.7 °C 1021.3 hPa NW 1.4 km/h 3.2 km/h 90% 0.0 mm 220 W/m2
10:38 9.4 °C 7.7 °C 1021.3 hPa NW 3.2 km/h 9.7 km/h 89% 0.0 mm 207 W/m2
10:43 9.6 °C 7.9 °C 1021.3 hPa WSW 4.7 km/h 6.4 km/h 89% 0.0 mm 193 W/m2
10:48 9.6 °C 7.7 °C 1021.3 hPa WNW 1.4 km/h 4.8 km/h 88% 0.0 mm 181 W/m2
10:53 9.6 °C 7.7 °C 1021.3 hPa Calm   6.4 km/h 88% 0.0 mm 204 W/m2
10:58 9.7 °C 7.8 °C 1021.3 hPa Calm   4.8 km/h 88% 0.0 mm 195 W/m2
11:03 9.8 °C 7.9 °C 1021.3 hPa WNW 3.2 km/h 8 km/h 88% 0.0 mm 167 W/m2
11:08 9.9 °C 8 °C 1021.3 hPa West 3.2 km/h 9.7 km/h 88% 0.0 mm 155 W/m2
11:13 10 °C 7.9 °C 1021.0 hPa WNW 1.4 km/h 11.3 km/h 87% 0.0 mm 128 W/m2
11:18 10.1 °C 8 °C 1021.3 hPa WNW 4.7 km/h 8 km/h 87% 0.0 mm 183 W/m2
11:23 10.2 °C 8 °C 1021.3 hPa West 3.2 km/h 12.9 km/h 86% 0.0 mm 299 W/m2
11:28 10.3 °C 8.2 °C 1021.3 hPa WNW 7.9 km/h 11.3 km/h 87% 0.0 mm 294 W/m2
11:33 10.5 °C 8.3 °C 1021.0 hPa NNW 6.4 km/h 17.7 km/h 86% 0.0 mm 374 W/m2
11:38 10.6 °C 8.2 °C 1021.0 hPa West 9.7 km/h 12.9 km/h 85% 0.0 mm 336 W/m2
11:43 10.7 °C 8.3 °C 1021.0 hPa WNW 4.7 km/h 8 km/h 85% 0.0 mm 230 W/m2
11:48 10.7 °C 8.3 °C 1021.0 hPa WNW 11.1 km/h 14.5 km/h 85% 0.0 mm 299 W/m2
11:53 10.7 °C 8.1 °C 1021.0 hPa WNW 6.4 km/h 16.1 km/h 84% 0.0 mm 186 W/m2
11:58 10.6 °C 8.2 °C 1021.0 hPa West 4.7 km/h 11.3 km/h 85% 0.0 mm 153 W/m2
12:03 10.6 °C 8.2 °C 1021.0 hPa WNW 3.2 km/h 16.1 km/h 85% 0.0 mm 185 W/m2
12:08 10.7 °C 8.3 °C 1021.0 hPa WSW 6.4 km/h 14.5 km/h 85% 0.0 mm 265 W/m2
12:13 10.8 °C 8.2 °C 1020.7 hPa WNW 7.9 km/h 16.1 km/h 84% 0.0 mm 214 W/m2
12:18 10.9 °C 8.1 °C 1020.7 hPa West 6.4 km/h 11.3 km/h 83% 0.0 mm 323 W/m2
12:23 11.1 °C 8 °C 1020.7 hPa SW 6.4 km/h 6.4 km/h 81% 0.0 mm 329 W/m2
12:28 11.2 °C 8.1 °C 1020.7 hPa WSW 9.7 km/h 12.9 km/h 81% 0.0 mm 188 W/m2
12:33 11.2 °C 8.1 °C 1020.7 hPa West 13 km/h 12.9 km/h 81% 0.0 mm 113 W/m2
12:38 11 °C 7.7 °C 1020.7 hPa West 3.2 km/h 17.7 km/h 80% 0.0 mm 111 W/m2
12:43 10.8 °C 7.9 °C 1020.7 hPa West 9.7 km/h 11.3 km/h 82% 0.0 mm 109 W/m2
12:48 10.8 °C 7.7 °C 1020.7 hPa West 6.4 km/h 11.3 km/h 81% 0.0 mm 109 W/m2
12:53 10.8 °C 7.9 °C 1020.7 hPa WSW 1.4 km/h 6.4 km/h 82% 0.0 mm 120 W/m2
12:58 10.8 °C 8 °C 1020.7 hPa WNW 4.7 km/h 11.3 km/h 83% 0.0 mm 132 W/m2
13:03 10.8 °C 8 °C 1020.7 hPa WNW 6.4 km/h 8 km/h 83% 0.0 mm 174 W/m2
13:08 10.8 °C 8.2 °C 1020.7 hPa West 9.7 km/h 11.3 km/h 84% 0.0 mm 218 W/m2
13:13 10.9 °C 8.1 °C 1020.7 hPa NW 6.4 km/h 14.5 km/h 83% 0.0 mm 116 W/m2
13:18 10.8 °C 8 °C 1020.7 hPa West 6.4 km/h 17.7 km/h 83% 0.0 mm 74 W/m2
13:23 10.7 °C 7.9 °C 1020.7 hPa WNW 7.9 km/h 14.5 km/h 83% 0.0 mm 70 W/m2
13:28 10.5 °C 7.9 °C 1020.3 hPa SW 1.4 km/h 9.7 km/h 84% 0.0 mm 56 W/m2
13:34 10.3 °C 7.9 °C 1020.3 hPa SW 6.4 km/h 14.5 km/h 85% 0.0 mm 70 W/m2
13:39 10.1 °C 7.9 °C 1020.3 hPa WNW 4.7 km/h 9.7 km/h 86% 0.0 mm 77 W/m2
13:44 9.9 °C 7.8 °C 1020.3 hPa WSW 11.1 km/h 14.5 km/h 87% 0.0 mm 69 W/m2
13:49 9.9 °C 7.8 °C 1020.3 hPa WNW 6.4 km/h 12.9 km/h 87% 0.0 mm 81 W/m2
13:54 9.9 °C 7.8 °C 1020.3 hPa WNW 13 km/h 14.5 km/h 87% 0.0 mm 83 W/m2
13:59 9.9 °C 8 °C 1020.3 hPa NW 4.7 km/h 12.9 km/h 88% 0.0 mm 100 W/m2
14:04 10 °C 8.1 °C 1020.0 hPa West 13 km/h 14.5 km/h 88% 0.0 mm 109 W/m2
14:09 10.1 °C 8 °C 1020.0 hPa West 4.7 km/h 11.3 km/h 87% 0.0 mm 113 W/m2
14:14 10.2 °C 8.1 °C 1020.0 hPa NW 7.9 km/h 14.5 km/h 87% 0.0 mm 135 W/m2
14:19 10.2 °C 8.1 °C 1020.0 hPa NW 4.7 km/h 6.4 km/h 87% 0.0 mm 188 W/m2
14:24 10.3 °C 8.4 °C 1020.0 hPa West 9.7 km/h 14.5 km/h 88% 0.0 mm 200 W/m2
14:29 10.3 °C 8.6 °C 1020.0 hPa WNW 4.7 km/h 6.4 km/h 89% 0.0 mm 204 W/m2
14:34 10.4 °C 8.5 °C 1019.6 hPa WNW 1.4 km/h 14.5 km/h 88% 0.0 mm 206 W/m2
14:39 10.4 °C 8.5 °C 1019.6 hPa West 11.1 km/h 11.3 km/h 88% 0.0 mm 199 W/m2
14:44 10.5 °C 8.4 °C 1019.6 hPa West 4.7 km/h 4.8 km/h 87% 0.0 mm 225 W/m2
14:49 10.7 °C 8.6 °C 1019.6 hPa WSW 4.7 km/h 4.8 km/h 87% 0.0 mm 234 W/m2
14:54 10.8 °C 8.6 °C 1019.6 hPa WSW 7.9 km/h 9.7 km/h 86% 0.0 mm 181 W/m2
14:59 10.9 °C 8.6 °C 1019.6 hPa WNW 6.4 km/h 8 km/h 86% 0.0 mm 197 W/m2
15:04 11.1 °C 8.8 °C 1019.6 hPa West 1.4 km/h 4.8 km/h 86% 0.0 mm 195 W/m2
15:09 11.2 °C 8.8 °C 1019.6 hPa West 4.7 km/h 8 km/h 85% 0.0 mm 202 W/m2
15:14 11.2 °C 8.4 °C 1019.6 hPa WNW 3.2 km/h 11.3 km/h 83% 0.0 mm 218 W/m2
15:19 11.2 °C 8.2 °C 1019.3 hPa WNW 4.7 km/h 11.3 km/h 82% 0.0 mm 327 W/m2
15:24 11.3 °C 8.3 °C 1019.3 hPa WNW 3.2 km/h 9.7 km/h 82% 0.0 mm 290 W/m2
15:29 11.4 °C 8.4 °C 1019.3 hPa WSW 4.7 km/h 6.4 km/h 82% 0.0 mm 199 W/m2
15:34 11.4 °C 8.1 °C 1019.3 hPa WSW 1.4 km/h 14.5 km/h 80% 0.0 mm 130 W/m2
15:39 11.4 °C 8.1 °C 1019.3 hPa NW 4.7 km/h 11.3 km/h 80% 0.0 mm 134 W/m2
15:44 11.3 °C 8.2 °C 1019.3 hPa West 1.4 km/h 14.5 km/h 81% 0.0 mm 148 W/m2
15:49 11.3 °C 8.5 °C 1019.3 hPa WSW 3.2 km/h 4.8 km/h 83% 0.0 mm 141 W/m2
15:54 11.3 °C 8.5 °C 1019.3 hPa WNW 1.4 km/h 8 km/h 83% 0.2 mm 134 W/m2
15:59 11.2 °C 8.4 °C 1019.3 hPa WNW 3.2 km/h 11.3 km/h 83% 0.2 mm 165 W/m2
16:04 11.1 °C 8.5 °C 1019.0 hPa West 3.2 km/h 6.4 km/h 84% 0.2 mm 155 W/m2
16:09 11 °C 8.6 °C 1019.0 hPa NW 4.7 km/h 6.4 km/h 85% 0.2 mm 135 W/m2
16:14 11 °C 8.7 °C 1019.0 hPa Calm   6.4 km/h 86% 0.2 mm 148 W/m2
16:19 11 °C 8.6 °C 1019.0 hPa West 3.2 km/h 6.4 km/h 85% 0.2 mm 114 W/m2
16:24 11.1 °C 8.7 °C 1019.0 hPa NW 3.2 km/h 3.2 km/h 85% 0.2 mm 83 W/m2
16:29 11.1 °C 8.7 °C 1019.0 hPa WNW 1.4 km/h 4.8 km/h 85% 0.2 mm 84 W/m2
16:34 11.1 °C 8.7 °C 1019.0 hPa WSW 3.2 km/h 4.8 km/h 85% 0.2 mm 86 W/m2
16:39 11 °C 8.6 °C 1019.0 hPa West 3.2 km/h 3.2 km/h 85% 0.2 mm 86 W/m2
16:44 11 °C 8.6 °C 1019.0 hPa West 4.7 km/h 8 km/h 85% 0.2 mm 83 W/m2
16:49 10.9 °C 8.5 °C 1019.0 hPa West 1.4 km/h 9.7 km/h 85% 0.2 mm 70 W/m2
16:54 10.8 °C 8.4 °C 1019.0 hPa SW 6.4 km/h 9.7 km/h 85% 0.0 mm 63 W/m2
16:59 10.8 °C 8.4 °C 1018.6 hPa NW 6.4 km/h 8 km/h 85% 0.0 mm 72 W/m2
17:04 10.8 °C 8.6 °C 1018.6 hPa NW 1.4 km/h 3.2 km/h 86% 0.0 mm 79 W/m2
17:09 10.8 °C 8.7 °C 1018.6 hPa WNW 7.9 km/h 8 km/h 87% 0.0 mm 74 W/m2
17:14 10.7 °C 8.6 °C 1018.6 hPa WSW 4.7 km/h 6.4 km/h 87% 0.0 mm 72 W/m2
17:19 10.7 °C 8.5 °C 1018.6 hPa West 8 km/h 8 km/h 86% 0.0 mm 67 W/m2
17:24 10.6 °C 8.5 °C 1018.6 hPa WNW 3.2 km/h 8 km/h 87% 0.0 mm 60 W/m2
17:29 10.5 °C 8.4 °C 1018.6 hPa West 4.7 km/h 6.4 km/h 87% 0.0 mm 62 W/m2
17:34 10.4 °C 8.5 °C 1018.6 hPa WNW 3.2 km/h 6.4 km/h 88% 0.0 mm 65 W/m2
17:39 10.3 °C 8.2 °C 1018.3 hPa WNW 3.2 km/h 9.7 km/h 87% 0.0 mm 67 W/m2
17:44 10.3 °C 8.2 °C 1018.3 hPa WNW 4.7 km/h 6.4 km/h 87% 0.0 mm 65 W/m2
17:49 10.3 °C 8.2 °C 1018.3 hPa West 3.2 km/h 8 km/h 87% 0.0 mm 62 W/m2
17:54 10.3 °C 8.2 °C 1018.3 hPa WNW 3.2 km/h 6.4 km/h 87% 0.0 mm 54 W/m2
17:59 10.3 °C 8.2 °C 1018.3 hPa West 4.7 km/h 8 km/h 87% 0.0 mm 51 W/m2
18:04 10.2 °C 8.1 °C 1018.3 hPa West 3.2 km/h 11.3 km/h 87% 0.0 mm 42 W/m2
18:09 10.2 °C 8.1 °C 1018.3 hPa WNW 4.7 km/h 4.8 km/h 87% 0.0 mm 33 W/m2
18:14 10.1 °C 8 °C 1018.3 hPa WNW 3.2 km/h 11.3 km/h 87% 0.0 mm 35 W/m2
18:19 10.1 °C 8 °C 1018.3 hPa West 4.7 km/h 4.8 km/h 87% 0.0 mm 30 W/m2
18:24 10 °C 7.9 °C 1018.3 hPa West 4.7 km/h 4.8 km/h 87% 0.0 mm 30 W/m2
18:29 9.9 °C 7.8 °C 1018.3 hPa NW 1.4 km/h 4.8 km/h 87% 0.0 mm 21 W/m2
18:34 9.9 °C 8 °C 1018.3 hPa West 1.4 km/h 6.4 km/h 88% 0.0 mm 14 W/m2
18:39 9.8 °C 7.9 °C 1018.3 hPa Calm   3.2 km/h 88% 0.0 mm 12 W/m2
18:44 9.8 °C 7.9 °C 1018.3 hPa WNW 1.4 km/h 4.8 km/h 88% 0.0 mm 9 W/m2
18:49 9.7 °C 8 °C 1018.3 hPa Calm   3.2 km/h 89% 0.0 mm 5 W/m2
18:54 9.6 °C 7.9 °C 1018.3 hPa West 1.4 km/h 4.8 km/h 89% 0.0 mm 0 W/m2
18:59 9.6 °C 7.9 °C 1018.3 hPa West 1.4 km/h 6.4 km/h 89% 0.0 mm 0 W/m2
19:04 9.6 °C 8 °C 1018.3 hPa WNW 4.7 km/h 6.4 km/h 90% 0.0 mm 0 W/m2
19:09 9.6 °C 8 °C 1018.3 hPa West 3.2 km/h 6.4 km/h 90% 0.0 mm 0 W/m2
19:14 9.6 °C 7.9 °C 1018.3 hPa WNW 1.4 km/h 4.8 km/h 89% 0.0 mm 0 W/m2
19:19 9.6 °C 8 °C 1018.3 hPa NW 1.4 km/h 3.2 km/h 90% 0.0 mm 0 W/m2
19:24 9.6 °C 8 °C 1018.3 hPa West 3.2 km/h 4.8 km/h 90% 0.0 mm 0 W/m2
19:29 9.6 °C 8 °C 1018.3 hPa West 1.4 km/h 4.8 km/h 90% 0.0 mm 0 W/m2
19:34 9.6 °C 8 °C 1018.3 hPa WNW 3.2 km/h 4.8 km/h 90% 0.0 mm 0 W/m2
19:39 9.6 °C 8 °C 1018.0 hPa West 1.4 km/h 4.8 km/h 90% 0.0 mm 0 W/m2
19:44 9.6 °C 7.9 °C 1018.0 hPa West 3.2 km/h 4.8 km/h 89% 0.0 mm 0 W/m2
19:49 9.6 °C 7.9 °C 1018.3 hPa WNW 4.7 km/h 4.8 km/h 89% 0.0 mm 0 W/m2
19:54 9.6 °C 7.9 °C 1018.3 hPa West 4.7 km/h 6.4 km/h 89% 0.0 mm 0 W/m2
19:59 9.6 °C 7.9 °C 1018.3 hPa West 1.4 km/h 3.2 km/h 89% 0.0 mm 0 W/m2
20:04 9.6 °C 7.9 °C 1018.0 hPa Calm   4.8 km/h 89% 0.0 mm 0 W/m2
20:09 9.6 °C 7.9 °C 1018.0 hPa SW 1.4 km/h 4.8 km/h 89% 0.0 mm 0 W/m2
20:14 9.6 °C 7.9 °C 1018.0 hPa Calm   1.6 km/h 89% 0.0 mm 0 W/m2
20:19 9.6 °C 7.9 °C 1018.0 hPa Calm   4.8 km/h 89% 0.0 mm 0 W/m2
20:24 9.6 °C 7.9 °C 1018.0 hPa SW 3.2 km/h 3.2 km/h 89% 0.0 mm 0 W/m2
20:29 9.6 °C 7.9 °C 1018.0 hPa WNW 3.2 km/h 6.4 km/h 89% 0.0 mm 0 W/m2
20:34 9.6 °C 7.9 °C 1018.0 hPa West 3.2 km/h 3.2 km/h 89% 0.0 mm 0 W/m2
20:39 9.7 °C 8 °C 1018.0 hPa WNW 4.7 km/h 6.4 km/h 89% 0.0 mm 0 W/m2
20:44 9.7 °C 8 °C 1018.0 hPa Calm   3.2 km/h 89% 0.0 mm 0 W/m2
20:49 9.7 °C 8 °C 1018.0 hPa NW 1.4 km/h 6.4 km/h 89% 0.0 mm 0 W/m2
20:54 9.6 °C 7.9 °C 1018.0 hPa West 1.4 km/h 4.8 km/h 89% 0.0 mm 0 W/m2
20:59 9.6 °C 7.9 °C 1017.6 hPa Calm   1.6 km/h 89% 0.0 mm 0 W/m2
21:04 9.5 °C 7.8 °C 1017.6 hPa Calm   1.6 km/h 89% 0.0 mm 0 W/m2
21:09 9.4 °C 7.8 °C 1017.6 hPa West 3.2 km/h 4.8 km/h 90% 0.0 mm 0 W/m2
21:14 9.4 °C 7.8 °C 1017.6 hPa Calm   3.2 km/h 90% 0.0 mm 0 W/m2
21:19 9.3 °C 7.7 °C 1017.6 hPa West 3.2 km/h 3.2 km/h 90% 0.0 mm 0 W/m2
21:24 9.3 °C 7.7 °C 1017.6 hPa Calm   4.8 km/h 90% 0.0 mm 0 W/m2
21:29 9.2 °C 7.6 °C 1017.6 hPa SE 3.2 km/h 4.8 km/h 90% 0.0 mm 0 W/m2
21:34 9.1 °C 7.7 °C 1017.6 hPa West 3.2 km/h 6.4 km/h 91% 0.0 mm 0 W/m2
21:40 9 °C 7.6 °C 1017.6 hPa Calm   3.2 km/h 91% 0.0 mm 0 W/m2
21:45 8.9 °C 7.5 °C 1017.6 hPa Calm   6.4 km/h 91% 0.0 mm 0 W/m2
21:50 8.8 °C 7.4 °C 1017.6 hPa Calm     91% 0.0 mm 0 W/m2
21:55 8.7 °C 7.3 °C 1017.6 hPa Calm   4.8 km/h 91% 0.0 mm 0 W/m2
22:00 8.7 °C 7.5 °C 1017.6 hPa Calm     92% 0.0 mm 0 W/m2
22:05 8.7 °C 7.5 °C 1017.6 hPa Calm   1.6 km/h 92% 0.0 mm 0 W/m2
22:10 8.7 °C 7.5 °C 1017.6 hPa Calm   1.6 km/h 92% 0.0 mm 0 W/m2
22:15 8.6 °C 7.4 °C 1017.3 hPa Calm     92% 0.0 mm 0 W/m2
22:20 8.6 °C 7.4 °C 1017.3 hPa Calm   1.6 km/h 92% 0.0 mm 0 W/m2
22:25 8.6 °C 7.4 °C 1017.3 hPa Calm     92% 0.0 mm 0 W/m2
22:30 8.5 °C 7.3 °C 1017.3 hPa WNW 1.4 km/h 4.8 km/h 92% 0.0 mm 0 W/m2
22:35 8.5 °C 7.4 °C 1017.3 hPa West 1.4 km/h 3.2 km/h 93% 0.0 mm 0 W/m2
22:40 8.5 °C 7.4 °C 1017.3 hPa West 3.2 km/h 6.4 km/h 93% 0.0 mm 0 W/m2
22:45 8.4 °C 7.3 °C 1017.3 hPa WNW 1.4 km/h 3.2 km/h 93% 0.0 mm 0 W/m2
22:50 8.4 °C 7.3 °C 1017.3 hPa NNW 1.4 km/h 3.2 km/h 93% 0.0 mm 0 W/m2
22:55 8.5 °C 7.4 °C 1017.3 hPa NNW 1.4 km/h 3.2 km/h 93% 0.0 mm 0 W/m2
23:00 8.5 °C 7.4 °C 1017.3 hPa NW 1.4 km/h 3.2 km/h 93% 0.0 mm 0 W/m2
23:05 8.6 °C 7.5 °C 1017.3 hPa WNW 1.4 km/h 3.2 km/h 93% 0.0 mm 0 W/m2
23:10 8.6 °C 7.5 °C 1017.3 hPa WNW 3.2 km/h 4.8 km/h 93% 0.0 mm 0 W/m2
23:15 8.6 °C 7.5 °C 1016.9 hPa Calm     93% 0.0 mm 0 W/m2
23:20 8.5 °C 7.3 °C 1016.9 hPa Calm   1.6 km/h 92% 0.0 mm 0 W/m2
23:25 8.4 °C 7.2 °C 1016.9 hPa Calm   3.2 km/h 92% 0.0 mm 0 W/m2
23:30 8.4 °C 7.3 °C 1016.9 hPa Calm   1.6 km/h 93% 0.0 mm 0 W/m2
23:35 8.4 °C 7.2 °C 1016.9 hPa Calm   3.2 km/h 92% 0.0 mm 0 W/m2
23:40 8.3 °C 7.1 °C 1016.9 hPa Calm   4.8 km/h 92% 0.0 mm 0 W/m2
23:45 8.3 °C 7.1 °C 1016.9 hPa Calm   3.2 km/h 92% 0.0 mm 0 W/m2
23:50 8.3 °C 7.2 °C 1016.9 hPa Calm   1.6 km/h 93% 0.0 mm 0 W/m2
23:55 8.2 °C 7.1 °C 1016.9 hPa Calm     93% 0.0 mm 0 W/m2
Juneau County Weather
Compliments of Weather Underground - 4 mb